Grayland, Washington
Current Conditions -  °F | °C
As of 1:53 PM on Monday 20 Oct 2014 (Local Time) from KHQM Reporting Station
Haze Haze  
Wind Chill: 62°   Ceiling: Unl
Heat Index: 62°   Visibility: 6mi
Dew Point: 56°   Wind: 9mph
Humidity: 80%   Direction: 160°SSE
Pressure: 29.74"   Gusts: NA
Location:  46.81°N, 124.1°W
Report Text: KHQM 202053Z AUTO 16008KT 6SM HZ FEW040 FEW055 17/13 A2974 RMK AO2 SLP074 T01670133 58001
Loading
Personal Weather Stations






























Interactive Weather Map
Tropical Storm Tracking
New forecast layout! Learn more

10-Day Weather Forecast

Advertisements
Track Severe Weather on mobile